createdAt,value
2022-10-05T00:00:56.150Z,100664.00
2022-10-05T00:03:37.031Z,100661.00
2022-10-05T00:06:05.220Z,100657.00
2022-10-05T00:08:35.234Z,100667.00
2022-10-05T00:11:02.349Z,100672.00
2022-10-05T00:13:30.990Z,100661.00
2022-10-05T00:16:21.079Z,100659.00
2022-10-05T00:18:53.678Z,100646.00
2022-10-05T00:21:29.166Z,100651.00
2022-10-05T00:23:58.243Z,100634.00
2022-10-05T00:26:32.044Z,100653.00
2022-10-05T00:28:58.980Z,100654.00
2022-10-05T00:31:32.941Z,100658.00
2022-10-05T00:33:59.930Z,100673.00
2022-10-05T00:36:26.853Z,100655.00
2022-10-05T00:38:55.359Z,100645.00
2022-10-05T00:41:22.207Z,100644.00
2022-10-05T00:44:46.859Z,100637.00
2022-10-05T00:47:54.201Z,100623.00
2022-10-05T00:51:18.005Z,100622.00
2022-10-05T00:54:45.660Z,100619.00
2022-10-05T00:57:51.205Z,100609.00
2022-10-05T01:00:21.958Z,100612.00
2022-10-05T01:03:15.261Z,100615.00
2022-10-05T01:06:08.473Z,100608.00
2022-10-05T01:09:36.226Z,100593.00
2022-10-05T01:12:52.805Z,100579.00
2022-10-05T01:15:37.127Z,100588.00
2022-10-05T01:18:33.238Z,100591.00
2022-10-05T01:21:18.692Z,100578.00
2022-10-05T01:24:31.992Z,100574.00
2022-10-05T01:27:29.373Z,100581.00
2022-10-05T01:30:19.751Z,100581.00
2022-10-05T01:33:07.624Z,100580.00
2022-10-05T01:35:48.340Z,100576.00
2022-10-05T01:38:28.145Z,100568.00
2022-10-05T01:41:06.854Z,100560.00
2022-10-05T01:43:56.282Z,100562.00
2022-10-05T01:46:49.138Z,100553.00
2022-10-05T01:49:55.068Z,100557.00
2022-10-05T01:52:54.268Z,100559.00
2022-10-05T01:55:56.615Z,100572.00
2022-10-05T01:58:43.233Z,100567.00
2022-10-05T02:01:38.006Z,100556.00
2022-10-05T02:04:35.647Z,100560.00
2022-10-05T02:07:15.498Z,100573.00
2022-10-05T02:10:00.727Z,100566.00
2022-10-05T02:12:35.159Z,100563.00
2022-10-05T02:15:13.761Z,100567.00
2022-10-05T02:17:52.059Z,100559.00
2022-10-05T02:20:31.928Z,100572.00
2022-10-05T02:23:07.425Z,100567.00
2022-10-05T02:25:40.588Z,100582.00
2022-10-05T02:28:21.965Z,100580.00
2022-10-05T02:31:04.457Z,100596.00
2022-10-05T02:33:34.807Z,100588.00
2022-10-05T02:36:13.096Z,100579.00
2022-10-05T02:39:02.585Z,100567.00
2022-10-05T02:42:08.592Z,100556.00
2022-10-05T02:45:46.646Z,100548.00
2022-10-05T02:48:42.534Z,100549.00
2022-10-05T02:51:16.659Z,100548.00
2022-10-05T02:54:02.346Z,100543.00
2022-10-05T02:57:16.672Z,100533.00
2022-10-05T02:59:58.004Z,100531.00
2022-10-05T03:02:58.704Z,100525.00
2022-10-05T03:05:43.749Z,100497.00
2022-10-05T03:08:16.606Z,100522.00
2022-10-05T03:11:04.802Z,100521.00
2022-10-05T03:13:47.693Z,100517.00
2022-10-05T03:16:47.871Z,100518.00
2022-10-05T03:19:41.710Z,100500.00
2022-10-05T03:22:33.758Z,100486.00
2022-10-05T03:25:40.101Z,100488.00
2022-10-05T03:28:42.338Z,100484.00
2022-10-05T03:32:14.056Z,100489.00
2022-10-05T03:35:02.477Z,100489.00
2022-10-05T03:38:30.856Z,100492.00
2022-10-05T03:41:23.996Z,100491.00
2022-10-05T03:44:33.698Z,100492.00
2022-10-05T03:47:39.492Z,100491.00
2022-10-05T03:50:43.053Z,100483.00
2022-10-05T03:53:44.000Z,100478.00
2022-10-05T03:56:26.884Z,100479.00
2022-10-05T03:59:33.710Z,100471.00
2022-10-05T04:02:19.981Z,100482.00
2022-10-05T04:04:57.230Z,100480.00
2022-10-05T04:07:56.808Z,100456.00
2022-10-05T04:10:34.026Z,100475.00
2022-10-05T04:13:18.650Z,100470.00
2022-10-05T04:16:29.758Z,100473.00
2022-10-05T04:19:19.282Z,100468.00
2022-10-05T04:22:10.422Z,100469.00
2022-10-05T04:24:46.212Z,100481.00
2022-10-05T04:27:30.590Z,100450.00
2022-10-05T04:30:13.239Z,100472.00
2022-10-05T04:32:55.619Z,100461.00
2022-10-05T04:35:41.140Z,100461.00
2022-10-05T04:39:00.819Z,100466.00
2022-10-05T04:42:09.566Z,100471.00
2022-10-05T04:45:19.879Z,100469.00
2022-10-05T04:48:19.954Z,100478.00
2022-10-05T04:51:25.588Z,100474.00
2022-10-05T04:54:30.404Z,100481.00
2022-10-05T04:57:11.054Z,100485.00
2022-10-05T05:00:05.842Z,100485.00
2022-10-05T05:02:38.358Z,100483.00
2022-10-05T05:05:33.976Z,100488.00
2022-10-05T05:08:31.516Z,100485.00
2022-10-05T05:11:25.876Z,100459.00
2022-10-05T05:14:34.242Z,100462.00
2022-10-05T05:17:19.074Z,100457.00
2022-10-05T05:20:25.939Z,100459.00
2022-10-05T05:23:51.892Z,100446.00
2022-10-05T05:27:02.167Z,100434.00
2022-10-05T05:30:16.664Z,100444.00
2022-10-05T05:33:35.855Z,100428.00
2022-10-05T05:36:46.825Z,100430.00
2022-10-05T05:40:10.049Z,100432.00
2022-10-05T05:43:19.807Z,100428.00
2022-10-05T05:46:09.480Z,100429.00
2022-10-05T05:48:49.106Z,100427.00
2022-10-05T05:51:45.385Z,100444.00
2022-10-05T05:54:23.665Z,100458.00
2022-10-05T05:57:35.906Z,100467.00
2022-10-05T06:00:06.119Z,100452.00
2022-10-05T06:02:59.415Z,100462.00
2022-10-05T06:05:45.012Z,100434.00
2022-10-05T06:08:43.270Z,100443.00
2022-10-05T06:11:17.680Z,100427.00
2022-10-05T06:13:46.354Z,100429.00
2022-10-05T06:16:55.735Z,100426.00
2022-10-05T06:19:25.764Z,100411.00
2022-10-05T06:22:13.362Z,100425.00
2022-10-05T06:25:11.828Z,100435.00
2022-10-05T06:28:10.826Z,100439.00
2022-10-05T06:30:54.327Z,100446.00
2022-10-05T06:33:50.673Z,100446.00
2022-10-05T06:36:29.741Z,100444.00
2022-10-05T06:39:29.177Z,100463.00
2022-10-05T06:42:39.429Z,100453.00
2022-10-05T06:45:48.634Z,100453.00
2022-10-05T06:48:24.371Z,100445.00
2022-10-05T06:51:28.556Z,100446.00
2022-10-05T06:54:05.608Z,100450.00
2022-10-05T06:57:10.500Z,100449.00
2022-10-05T07:00:09.562Z,100448.00
2022-10-05T07:02:45.099Z,100452.00
2022-10-05T07:05:39.020Z,100447.00
2022-10-05T07:08:12.222Z,100437.00
2022-10-05T07:11:17.204Z,100425.00
2022-10-05T07:14:05.464Z,100439.00
2022-10-05T07:16:52.677Z,100446.00
2022-10-05T07:20:01.067Z,100458.00
2022-10-05T07:23:02.165Z,100459.00
2022-10-05T07:25:50.424Z,100452.00
2022-10-05T07:28:47.959Z,100457.00
2022-10-05T07:31:33.566Z,100451.00
2022-10-05T07:34:15.781Z,100451.00
2022-10-05T07:37:21.910Z,100462.00
2022-10-05T07:40:15.207Z,100466.00
2022-10-05T07:43:00.894Z,100471.00
2022-10-05T07:46:03.105Z,100487.00
2022-10-05T07:49:05.602Z,100469.00
2022-10-05T07:51:50.346Z,100479.00
2022-10-05T07:54:37.918Z,100474.00
2022-10-05T07:57:07.794Z,100473.00
2022-10-05T08:00:03.954Z,100472.00
2022-10-05T08:02:44.429Z,100468.00
2022-10-05T08:05:28.420Z,100460.00
2022-10-05T08:08:35.992Z,100459.00
2022-10-05T08:11:15.581Z,100455.00
2022-10-05T08:13:55.866Z,100458.00
2022-10-05T08:16:28.284Z,100457.00
2022-10-05T08:19:06.100Z,100445.00
2022-10-05T08:21:48.060Z,100448.00
2022-10-05T08:24:51.773Z,100445.00
2022-10-05T08:27:49.584Z,100431.00
2022-10-05T08:30:17.522Z,100432.00
2022-10-05T08:32:55.704Z,100428.00
2022-10-05T08:35:55.720Z,100429.00
2022-10-05T08:38:33.369Z,100434.00
2022-10-05T08:41:38.074Z,100435.00
2022-10-05T08:44:37.689Z,100437.00
2022-10-05T08:47:10.197Z,100433.00
2022-10-05T08:50:00.948Z,100437.00
2022-10-05T08:52:39.232Z,100439.00
2022-10-05T08:55:33.740Z,100445.00
2022-10-05T08:58:30.603Z,100451.00
2022-10-05T09:01:15.404Z,100453.00
2022-10-05T09:04:38.774Z,100431.00
2022-10-05T09:07:27.216Z,100465.00
2022-10-05T09:10:25.069Z,100460.00
2022-10-05T09:13:24.892Z,100409.00
2022-10-05T09:16:22.496Z,100469.00
2022-10-05T09:19:44.523Z,100477.00
2022-10-05T09:22:35.242Z,100476.00
2022-10-05T09:25:25.442Z,100493.00
2022-10-05T09:27:58.823Z,100495.00
2022-10-05T09:30:47.850Z,100492.00
2022-10-05T09:33:30.050Z,100484.00
2022-10-05T09:36:35.509Z,100488.00
2022-10-05T09:39:40.894Z,100487.00
2022-10-05T09:42:41.722Z,100487.00
2022-10-05T09:45:57.917Z,100483.00
2022-10-05T09:49:15.265Z,100489.00
2022-10-05T09:52:17.934Z,100483.00
2022-10-05T09:55:10.987Z,100476.00
2022-10-05T09:58:16.099Z,100472.00
2022-10-05T10:01:15.942Z,100475.00
2022-10-05T10:04:48.284Z,100487.00
2022-10-05T10:07:46.368Z,100483.00
2022-10-05T10:10:16.056Z,100486.00
2022-10-05T10:13:20.571Z,100486.00
2022-10-05T10:16:15.836Z,100481.00
2022-10-05T10:19:06.526Z,100479.00
2022-10-05T10:22:53.323Z,100482.00
2022-10-05T10:25:55.830Z,100481.00
2022-10-05T10:28:46.872Z,100474.00
2022-10-05T10:32:11.605Z,100476.00
2022-10-05T10:35:19.401Z,100483.00
2022-10-05T10:38:15.922Z,100470.00
2022-10-05T10:41:16.777Z,100470.00
2022-10-05T10:44:11.093Z,100468.00
2022-10-05T10:46:50.353Z,100470.00
2022-10-05T10:49:36.218Z,100467.00
2022-10-05T10:52:38.921Z,100470.00
2022-10-05T10:55:51.871Z,100463.00
2022-10-05T10:58:43.851Z,100476.00
2022-10-05T11:01:34.272Z,100476.00
2022-10-05T11:04:13.212Z,100462.00
2022-10-05T11:06:42.982Z,100465.00
2022-10-05T11:09:50.712Z,100472.00
2022-10-05T11:12:54.441Z,100463.00
2022-10-05T11:15:50.460Z,100459.00
2022-10-05T11:18:46.787Z,100452.00
2022-10-05T11:21:48.430Z,100455.00
2022-10-05T11:24:38.693Z,100453.00
2022-10-05T11:27:30.209Z,100451.00
2022-10-05T11:30:27.984Z,100459.00
2022-10-05T11:32:57.715Z,100454.00
2022-10-05T11:35:49.272Z,100450.00
2022-10-05T11:38:53.161Z,100449.00
2022-10-05T11:41:41.816Z,100449.00
2022-10-05T11:44:39.493Z,100447.00
2022-10-05T11:47:58.741Z,100439.00
2022-10-05T11:51:18.695Z,100446.00
2022-10-05T11:54:18.667Z,100439.00
2022-10-05T11:57:07.853Z,100435.00
2022-10-05T12:00:07.154Z,100433.00
2022-10-05T12:02:55.679Z,100432.00
2022-10-05T12:17:38.027Z,100433.00
2022-10-05T12:20:33.462Z,100437.00
2022-10-05T12:23:34.662Z,100436.00
2022-10-05T12:26:11.736Z,100432.00
2022-10-05T12:28:47.592Z,100430.00
2022-10-05T12:31:30.093Z,100435.00
2022-10-05T12:34:13.426Z,100436.00
2022-10-05T12:37:17.084Z,100432.00
2022-10-05T12:40:02.638Z,100433.00
2022-10-05T12:42:50.320Z,100368.00
2022-10-05T12:45:38.408Z,100427.00
2022-10-05T12:48:34.184Z,100429.00
2022-10-05T12:51:22.148Z,100434.00
2022-10-05T12:54:06.457Z,100427.00
2022-10-05T12:57:08.727Z,100437.00
2022-10-05T12:59:35.588Z,100440.00
2022-10-05T13:02:13.964Z,100421.00
2022-10-05T13:05:10.270Z,100450.00
2022-10-05T13:08:09.329Z,100455.00
2022-10-05T13:10:44.766Z,100441.00
2022-10-05T13:13:45.109Z,100440.00
2022-10-05T13:16:15.494Z,100445.00
2022-10-05T13:19:04.339Z,100446.00
2022-10-05T13:21:46.241Z,100432.00
2022-10-05T13:24:26.596Z,100432.00
2022-10-05T13:27:14.150Z,100431.00
2022-10-05T13:29:55.808Z,100422.00
2022-10-05T13:32:29.575Z,100422.00
2022-10-05T13:35:29.764Z,100414.00
2022-10-05T13:38:44.358Z,100427.00
2022-10-05T13:41:39.257Z,100421.00
2022-10-05T13:44:37.939Z,100432.00
2022-10-05T13:47:22.789Z,100428.00
2022-10-05T13:50:07.178Z,100423.00
2022-10-05T13:53:00.174Z,100367.00
2022-10-05T13:56:03.872Z,100417.00
2022-10-05T13:58:46.171Z,100404.00
2022-10-05T14:01:46.681Z,100403.00
2022-10-05T14:04:22.189Z,100397.00
2022-10-05T14:06:49.632Z,100394.00
2022-10-05T14:09:22.291Z,100394.00
2022-10-05T14:12:14.599Z,100387.00
2022-10-05T14:14:52.404Z,100379.00
2022-10-05T14:17:42.540Z,100397.00
2022-10-05T14:20:28.317Z,100396.00
2022-10-05T14:23:05.281Z,100396.00
2022-10-05T14:25:53.654Z,100410.00
2022-10-05T14:28:30.569Z,100410.00
2022-10-05T14:31:00.179Z,100406.00
2022-10-05T14:33:33.728Z,100407.00
2022-10-05T14:36:01.149Z,100407.00
2022-10-05T14:38:52.564Z,100407.00
2022-10-05T14:41:27.703Z,100405.00
2022-10-05T14:44:16.236Z,100400.00
2022-10-05T14:47:02.685Z,100407.00
2022-10-05T14:49:37.294Z,100402.00
2022-10-05T14:52:34.159Z,100404.00
2022-10-05T14:55:44.894Z,100393.00
2022-10-05T14:58:14.832Z,100402.00
2022-10-05T15:01:16.649Z,100393.00
2022-10-05T15:03:57.291Z,100394.00
2022-10-05T15:07:28.013Z,100397.00
2022-10-05T15:10:27.006Z,100409.00
2022-10-05T15:13:09.210Z,100401.00
2022-10-05T15:15:59.544Z,100396.00
2022-10-05T15:19:06.264Z,100393.00
2022-10-05T15:22:29.363Z,100383.00
2022-10-05T15:25:15.350Z,100388.00
2022-10-05T15:28:19.494Z,100383.00
2022-10-05T15:31:23.611Z,100382.00
2022-10-05T15:34:05.167Z,100374.00
2022-10-05T15:36:43.026Z,100374.00
2022-10-05T15:39:28.484Z,100379.00
2022-10-05T15:42:02.337Z,100383.00
2022-10-05T15:45:06.966Z,100386.00
2022-10-05T15:48:39.367Z,100382.00
2022-10-05T15:51:30.716Z,100381.00
2022-10-05T15:54:32.781Z,100383.00
2022-10-05T15:57:36.697Z,100377.00
2022-10-05T16:00:16.689Z,100387.00
2022-10-05T16:03:14.156Z,100378.00
2022-10-05T16:06:08.694Z,100377.00
2022-10-05T16:09:07.509Z,100381.00
2022-10-05T16:12:14.288Z,100371.00
2022-10-05T16:15:06.506Z,100375.00
2022-10-05T16:17:42.656Z,100380.00
2022-10-05T16:20:48.178Z,100374.00
2022-10-05T16:23:41.722Z,100370.00
2022-10-05T16:26:39.613Z,100380.00
2022-10-05T16:29:17.505Z,100373.00
2022-10-05T16:32:00.202Z,100378.00
2022-10-05T16:34:56.349Z,100375.00
2022-10-05T16:37:50.074Z,100379.00
2022-10-05T16:40:36.020Z,100373.00
2022-10-05T16:43:22.294Z,100379.00
2022-10-05T16:46:03.306Z,100369.00
2022-10-05T16:49:15.879Z,100378.00
2022-10-05T16:52:01.407Z,100373.00
2022-10-05T16:54:28.247Z,100372.00
2022-10-05T16:57:19.097Z,100375.00
2022-10-05T17:00:15.988Z,100373.00
2022-10-05T17:03:04.912Z,100372.00
2022-10-05T17:06:17.022Z,100377.00
2022-10-05T17:09:23.247Z,100378.00
2022-10-05T17:12:08.414Z,100371.00
2022-10-05T17:15:13.556Z,100374.00
2022-10-05T17:18:09.178Z,100373.00
2022-10-05T17:20:42.575Z,100368.00
2022-10-05T17:23:33.840Z,100369.00
2022-10-05T17:26:38.588Z,100364.00
2022-10-05T17:29:15.403Z,100359.00
2022-10-05T17:32:11.234Z,100362.00
2022-10-05T17:35:02.848Z,100364.00
2022-10-05T17:38:09.168Z,100361.00
2022-10-05T17:40:39.145Z,100339.00
2022-10-05T17:43:15.444Z,100365.00
2022-10-05T17:45:42.311Z,100366.00
2022-10-05T17:48:11.760Z,100356.00
2022-10-05T17:51:06.500Z,100357.00
2022-10-05T17:54:03.820Z,100358.00
2022-10-05T17:56:53.322Z,100358.00
2022-10-05T17:59:58.664Z,100358.00
2022-10-05T18:02:40.409Z,100344.00
2022-10-05T18:05:14.526Z,100348.00
2022-10-05T18:07:48.215Z,100339.00
2022-10-05T18:10:32.548Z,100344.00
2022-10-05T18:12:59.394Z,100343.00
2022-10-05T18:15:26.365Z,100347.00
2022-10-05T18:17:57.484Z,100334.00
2022-10-05T18:20:25.533Z,100340.00
2022-10-05T18:23:01.615Z,100333.00
2022-10-05T18:25:49.611Z,100333.00
2022-10-05T18:28:39.245Z,100339.00
2022-10-05T18:31:30.545Z,100339.00
2022-10-05T18:34:09.088Z,100335.00
2022-10-05T18:36:45.344Z,100335.00
2022-10-05T18:40:05.791Z,100334.00
2022-10-05T18:43:14.689Z,100330.00
2022-10-05T18:46:15.248Z,100332.00
2022-10-05T18:49:18.874Z,100323.00
2022-10-05T18:52:21.268Z,100325.00
2022-10-05T19:07:41.157Z,100323.00
2022-10-05T19:10:25.806Z,100315.00
2022-10-05T19:13:23.841Z,100310.00
2022-10-05T19:16:18.883Z,100313.00
2022-10-05T19:19:43.792Z,100313.00
2022-10-05T19:22:32.265Z,100314.00
2022-10-05T19:25:16.703Z,100303.00
2022-10-05T19:28:13.712Z,100311.00
2022-10-05T19:31:17.876Z,100304.00
2022-10-05T19:34:23.694Z,100310.00
2022-10-05T19:37:14.119Z,100315.00
2022-10-05T19:39:55.535Z,100315.00
2022-10-05T19:42:53.106Z,100307.00
2022-10-05T19:45:27.195Z,100309.00
2022-10-05T19:48:30.536Z,100306.00
2022-10-05T19:51:03.486Z,100307.00
2022-10-05T19:53:37.139Z,100306.00
2022-10-05T19:56:35.348Z,100311.00
2022-10-05T19:59:20.278Z,100315.00
2022-10-05T20:01:53.779Z,100310.00
2022-10-05T20:04:36.550Z,100317.00
2022-10-05T20:07:04.107Z,100315.00
2022-10-05T20:10:00.664Z,100310.00
2022-10-05T20:12:51.460Z,100313.00
2022-10-05T20:15:46.068Z,100311.00
2022-10-05T20:19:06.733Z,100312.00
2022-10-05T20:21:47.430Z,100309.00
2022-10-05T20:24:17.935Z,100313.00
2022-10-05T20:27:05.175Z,100306.00
2022-10-05T20:29:43.928Z,100305.00
2022-10-05T20:32:18.068Z,100303.00
2022-10-05T20:34:49.352Z,100302.00
2022-10-05T20:37:18.929Z,100298.00
2022-10-05T20:39:48.065Z,100302.00
2022-10-05T20:42:15.176Z,100300.00
2022-10-05T20:44:44.525Z,100292.00
2022-10-05T20:47:12.452Z,100292.00
2022-10-05T20:49:44.788Z,100296.00
2022-10-05T20:52:15.013Z,100294.00
2022-10-05T20:54:42.316Z,100287.00
2022-10-05T20:57:09.931Z,100261.00
2022-10-05T20:59:37.459Z,100291.00
2022-10-05T21:02:05.701Z,100290.00
2022-10-05T21:04:40.841Z,100257.00
2022-10-05T21:07:08.915Z,100278.00
2022-10-05T21:09:38.390Z,100277.00
2022-10-05T21:12:05.702Z,100271.00
2022-10-05T21:14:34.399Z,100277.00
2022-10-05T21:17:02.103Z,100276.00
2022-10-05T21:19:29.780Z,100285.00
2022-10-05T21:22:02.512Z,100282.00
2022-10-05T21:24:29.699Z,100280.00
2022-10-05T21:26:57.565Z,100281.00
2022-10-05T21:29:24.776Z,100281.00
2022-10-05T21:31:52.063Z,100277.00
2022-10-05T21:34:19.205Z,100207.00
2022-10-05T21:36:46.214Z,100276.00
2022-10-05T21:39:13.172Z,100282.00
2022-10-05T21:41:40.164Z,100271.00
2022-10-05T21:44:07.102Z,100270.00
2022-10-05T21:46:38.078Z,100276.00
2022-10-05T21:49:08.008Z,100268.00
2022-10-05T21:51:36.546Z,100277.00
2022-10-05T21:54:11.533Z,100273.00
2022-10-05T21:56:46.298Z,100267.00
2022-10-05T21:59:19.231Z,100274.00
2022-10-05T22:01:46.195Z,100281.00
2022-10-05T22:04:14.966Z,100271.00
2022-10-05T22:06:41.971Z,100266.00
2022-10-05T22:09:09.275Z,100267.00
2022-10-05T22:11:36.467Z,100273.00
2022-10-05T22:14:03.826Z,100274.00
2022-10-05T22:16:36.597Z,100270.00
2022-10-05T22:19:10.759Z,100279.00
2022-10-05T22:21:41.554Z,100274.00
2022-10-05T22:24:11.499Z,100261.00
2022-10-05T22:26:41.892Z,100271.00
2022-10-05T22:29:09.699Z,100271.00
2022-10-05T22:31:37.671Z,100278.00
2022-10-05T22:34:04.951Z,100274.00
2022-10-05T22:36:35.502Z,100243.00
2022-10-05T22:39:02.700Z,100269.00
2022-10-05T22:41:29.612Z,100268.00
2022-10-05T22:43:56.503Z,100262.00
2022-10-05T22:46:23.482Z,100262.00
2022-10-05T22:48:50.462Z,100259.00
2022-10-05T22:51:17.495Z,100250.00
2022-10-05T22:53:44.406Z,100265.00
2022-10-05T22:56:14.021Z,100257.00
2022-10-05T22:58:42.603Z,100259.00
2022-10-05T23:01:16.395Z,100267.00
2022-10-05T23:03:44.340Z,100261.00
2022-10-05T23:06:18.174Z,100258.00
2022-10-05T23:08:46.748Z,100262.00
2022-10-05T23:11:17.504Z,100268.00
2022-10-05T23:13:45.094Z,100255.00
2022-10-05T23:16:18.193Z,100263.00
2022-10-05T23:18:49.061Z,100264.00
2022-10-05T23:21:17.166Z,100268.00
2022-10-05T23:23:48.999Z,100269.00
2022-10-05T23:26:18.708Z,100273.00
2022-10-05T23:28:49.209Z,100269.00
2022-10-05T23:31:21.013Z,100267.00
2022-10-05T23:33:48.469Z,100271.00
2022-10-05T23:36:21.926Z,100248.00
2022-10-05T23:38:49.431Z,100267.00
2022-10-05T23:41:17.561Z,100278.00
2022-10-05T23:43:44.582Z,100276.00
2022-10-05T23:46:13.407Z,100264.00
2022-10-05T23:48:40.696Z,100271.00
2022-10-05T23:51:11.008Z,100263.00
2022-10-05T23:53:38.217Z,100266.00
2022-10-05T23:56:05.795Z,100271.00
2022-10-05T23:58:32.938Z,100274.00
